sensor_id;sensor_type;location;lat;lon;timestamp;pressure;altitude;pressure_sealevel;temperature;humidity
72210;BME280;60113;48.762;12.302;2023-12-14T00:01:15;96006.03;;;3.48;100.00
72210;BME280;60113;48.762;12.302;2023-12-14T00:03:41;96006.75;;;3.50;100.00
72210;BME280;60113;48.762;12.302;2023-12-14T00:06:15;96009.25;;;3.52;100.00
72210;BME280;60113;48.762;12.302;2023-12-14T00:08:41;96012.69;;;3.53;100.00
72210;BME280;60113;48.762;12.302;2023-12-14T00:11:08;96005.72;;;3.53;100.00
72210;BME280;60113;48.762;12.302;2023-12-14T00:13:34;96011.75;;;3.54;100.00
72210;BME280;60113;48.762;12.302;2023-12-14T00:16:00;96017.78;;;3.54;100.00
72210;BME280;60113;48.762;12.302;2023-12-14T00:18:25;96014.44;;;3.52;100.00
72210;BME280;60113;48.762;12.302;2023-12-14T00:20:51;96014.34;;;3.54;100.00
72210;BME280;60113;48.762;12.302;2023-12-14T00:23:18;96015.19;;;3.54;100.00
72210;BME280;60113;48.762;12.302;2023-12-14T00:25:43;96021.22;;;3.55;100.00
72210;BME280;60113;48.762;12.302;2023-12-14T00:28:09;96016.84;;;3.55;100.00
72210;BME280;60113;48.762;12.302;2023-12-14T00:30:34;96021.13;;;3.56;100.00
72210;BME280;60113;48.762;12.302;2023-12-14T00:33:00;96025.47;;;3.56;100.00
72210;BME280;60113;48.762;12.302;2023-12-14T00:35:25;96021.13;;;3.56;100.00
72210;BME280;60113;48.762;12.302;2023-12-14T00:37:51;96029.72;;;3.57;100.00
72210;BME280;60113;48.762;12.302;2023-12-14T00:40:16;96028.06;;;3.56;100.00
72210;BME280;60113;48.762;12.302;2023-12-14T00:42:42;96038.47;;;3.56;100.00
72210;BME280;60113;48.762;12.302;2023-12-14T00:45:07;96037.72;;;3.54;100.00
72210;BME280;60113;48.762;12.302;2023-12-14T00:47:34;96039.50;;;3.53;100.00
72210;BME280;60113;48.762;12.302;2023-12-14T00:49:59;96045.50;;;3.54;100.00
72210;BME280;60113;48.762;12.302;2023-12-14T00:52:25;96062.97;;;3.52;100.00
72210;BME280;60113;48.762;12.302;2023-12-14T00:54:50;96062.97;;;3.52;100.00
72210;BME280;60113;48.762;12.302;2023-12-14T00:57:15;96065.78;;;3.48;100.00
72210;BME280;60113;48.762;12.302;2023-12-14T00:59:41;96076.97;;;3.49;100.00
72210;BME280;60113;48.762;12.302;2023-12-14T01:02:06;96082.38;;;3.46;100.00
72210;BME280;60113;48.762;12.302;2023-12-14T01:04:32;96091.03;;;3.46;100.00
72210;BME280;60113;48.762;12.302;2023-12-14T01:06:57;96094.56;;;3.45;100.00
72210;BME280;60113;48.762;12.302;2023-12-14T01:09:23;96098.91;;;3.45;100.00
72210;BME280;60113;48.762;12.302;2023-12-14T01:11:48;96107.53;;;3.45;100.00
72210;BME280;60113;48.762;12.302;2023-12-14T01:14:14;96112.84;;;3.44;100.00
72210;BME280;60113;48.762;12.302;2023-12-14T01:16:39;96115.63;;;3.41;100.00
72210;BME280;60113;48.762;12.302;2023-12-14T01:19:05;96116.53;;;3.40;100.00
72210;BME280;60113;48.762;12.302;2023-12-14T01:21:34;96124.44;;;3.38;100.00
72210;BME280;60113;48.762;12.302;2023-12-14T01:23:59;96118.44;;;3.37;100.00
72210;BME280;60113;48.762;12.302;2023-12-14T01:26:26;96124.53;;;3.36;100.00
72210;BME280;60113;48.762;12.302;2023-12-14T01:28:52;96133.16;;;3.37;100.00
72210;BME280;60113;48.762;12.302;2023-12-14T01:31:18;96134.13;;;3.36;100.00
72210;BME280;60113;48.762;12.302;2023-12-14T01:33:44;96145.31;;;3.36;100.00
72210;BME280;60113;48.762;12.302;2023-12-14T01:36:11;96145.41;;;3.35;100.00
72210;BME280;60113;48.762;12.302;2023-12-14T01:38:37;96152.38;;;3.34;100.00
72210;BME280;60113;48.762;12.302;2023-12-14T01:41:03;96149.78;;;3.34;100.00
72210;BME280;60113;48.762;12.302;2023-12-14T01:43:28;96155.09;;;3.33;100.00
72210;BME280;60113;48.762;12.302;2023-12-14T01:45:54;96159.44;;;3.32;100.00
72210;BME280;60113;48.762;12.302;2023-12-14T01:48:19;96155.19;;;3.31;100.00
72210;BME280;60113;48.762;12.302;2023-12-14T01:50:45;96162.13;;;3.31;100.00
72210;BME280;60113;48.762;12.302;2023-12-14T01:53:10;96165.66;;;3.30;100.00
72210;BME280;60113;48.762;12.302;2023-12-14T01:55:36;96166.50;;;3.30;100.00
72210;BME280;60113;48.762;12.302;2023-12-14T01:58:01;96178.66;;;3.30;100.00
72210;BME280;60113;48.762;12.302;2023-12-14T02:00:46;96175.13;;;3.31;100.00
72210;BME280;60113;48.762;12.302;2023-12-14T02:03:16;96177.72;;;3.31;100.00
72210;BME280;60113;48.762;12.302;2023-12-14T02:05:42;96186.44;;;3.30;100.00
72210;BME280;60113;48.762;12.302;2023-12-14T02:08:08;96188.09;;;3.31;100.00
72210;BME280;60113;48.762;12.302;2023-12-14T02:10:34;96190.78;;;3.29;100.00
72210;BME280;60113;48.762;12.302;2023-12-14T02:13:03;96195.97;;;3.29;100.00
72210;BME280;60113;48.762;12.302;2023-12-14T02:15:30;96200.47;;;3.27;100.00
72210;BME280;60113;48.762;12.302;2023-12-14T02:17:56;96198.78;;;3.26;100.00
72210;BME280;60113;48.762;12.302;2023-12-14T02:20:21;96200.66;;;3.24;100.00
72210;BME280;60113;48.762;12.302;2023-12-14T02:22:54;96203.97;;;3.26;100.00
72210;BME280;60113;48.762;12.302;2023-12-14T02:25:21;96205.84;;;3.24;100.00
72210;BME280;60113;48.762;12.302;2023-12-14T02:27:46;96206.66;;;3.24;100.00
72210;BME280;60113;48.762;12.302;2023-12-14T02:30:13;96209.25;;;3.24;100.00
72210;BME280;60113;48.762;12.302;2023-12-14T02:32:39;96209.25;;;3.24;100.00
72210;BME280;60113;48.762;12.302;2023-12-14T02:35:05;96208.44;;;3.24;100.00
72210;BME280;60113;48.762;12.302;2023-12-14T02:37:32;96217.03;;;3.24;100.00
72210;BME280;60113;48.762;12.302;2023-12-14T02:39:59;96216.94;;;3.26;100.00
72210;BME280;60113;48.762;12.302;2023-12-14T02:42:25;96224.03;;;3.24;100.00
72210;BME280;60113;48.762;12.302;2023-12-14T02:44:50;96219.84;;;3.21;100.00
72210;BME280;60113;48.762;12.302;2023-12-14T02:47:16;96236.16;;;3.23;100.00
72210;BME280;60113;48.762;12.302;2023-12-14T02:49:42;96238.84;;;3.22;100.00
72210;BME280;60113;48.762;12.302;2023-12-14T02:52:08;96235.50;;;3.20;100.00
72210;BME280;60113;48.762;12.302;2023-12-14T02:54:33;96247.69;;;3.19;100.00
72210;BME280;60113;48.762;12.302;2023-12-14T02:56:58;96246.94;;;3.17;100.00
72210;BME280;60113;48.762;12.302;2023-12-14T02:59:24;96246.09;;;3.17;100.00
72210;BME280;60113;48.762;12.302;2023-12-14T03:01:49;96252.22;;;3.16;100.00
72210;BME280;60113;48.762;12.302;2023-12-14T03:04:15;96254.81;;;3.16;100.00
72210;BME280;60113;48.762;12.302;2023-12-14T03:06:41;96258.34;;;3.15;100.00
72210;BME280;60113;48.762;12.302;2023-12-14T03:09:07;96266.13;;;3.15;100.00
72210;BME280;60113;48.762;12.302;2023-12-14T03:11:33;96267.03;;;3.13;100.00
72210;BME280;60113;48.762;12.302;2023-12-14T03:13:59;96269.63;;;3.13;100.00
72210;BME280;60113;48.762;12.302;2023-12-14T03:16:24;96268.81;;;3.13;100.00
72210;BME280;60113;48.762;12.302;2023-12-14T03:18:50;96274.13;;;3.11;100.00
72210;BME280;60113;48.762;12.302;2023-12-14T03:21:19;96280.97;;;3.12;100.00
72210;BME280;60113;48.762;12.302;2023-12-14T03:23:44;96282.72;;;3.12;100.00
72210;BME280;60113;48.762;12.302;2023-12-14T03:26:10;96286.25;;;3.11;100.00
72210;BME280;60113;48.762;12.302;2023-12-14T03:28:35;96284.59;;;3.10;100.00
72210;BME280;60113;48.762;12.302;2023-12-14T03:31:01;96289.78;;;3.10;100.00
72210;BME280;60113;48.762;12.302;2023-12-14T03:33:26;96293.28;;;3.09;100.00
72210;BME280;60113;48.762;12.302;2023-12-14T03:35:51;96299.41;;;3.08;100.00
72210;BME280;60113;48.762;12.302;2023-12-14T03:38:17;96294.22;;;3.08;100.00
72210;BME280;60113;48.762;12.302;2023-12-14T03:40:42;96307.19;;;3.08;100.00
72210;BME280;60113;48.762;12.302;2023-12-14T03:43:09;96306.25;;;3.09;100.00
72210;BME280;60113;48.762;12.302;2023-12-14T03:45:35;96302.84;;;3.08;100.00
72210;BME280;60113;48.762;12.302;2023-12-14T03:48:01;96317.59;;;3.08;100.00
72210;BME280;60113;48.762;12.302;2023-12-14T03:50:26;96317.50;;;3.09;100.00
72210;BME280;60113;48.762;12.302;2023-12-14T03:52:53;96318.44;;;3.08;100.00
72210;BME280;60113;48.762;12.302;2023-12-14T03:55:18;96322.69;;;3.09;100.00
72210;BME280;60113;48.762;12.302;2023-12-14T03:57:44;96321.03;;;3.08;100.00
72210;BME280;60113;48.762;12.302;2023-12-14T04:00:11;96322.78;;;3.08;100.00
72210;BME280;60113;48.762;12.302;2023-12-14T04:02:38;96330.47;;;3.09;100.00
72210;BME280;60113;48.762;12.302;2023-12-14T04:05:04;96323.63;;;3.08;100.00
72210;BME280;60113;48.762;12.302;2023-12-14T04:07:32;96334.81;;;3.09;100.00
72210;BME280;60113;48.762;12.302;2023-12-14T04:10:00;96334.81;;;3.09;100.00
72210;BME280;60113;48.762;12.302;2023-12-14T04:12:25;96337.31;;;3.10;100.00
72210;BME280;60113;48.762;12.302;2023-12-14T04:14:51;96345.09;;;3.10;100.00
72210;BME280;60113;48.762;12.302;2023-12-14T04:17:17;96356.34;;;3.11;100.00
72210;BME280;60113;48.762;12.302;2023-12-14T04:19:42;96361.53;;;3.11;100.00
72210;BME280;60113;48.762;12.302;2023-12-14T04:22:07;96364.22;;;3.09;100.00
72210;BME280;60113;48.762;12.302;2023-12-14T04:24:33;96366.81;;;3.09;100.00
72210;BME280;60113;48.762;12.302;2023-12-14T04:26:59;96369.41;;;3.09;100.00
72210;BME280;60113;48.762;12.302;2023-12-14T04:29:26;96373.75;;;3.09;100.00
72210;BME280;60113;48.762;12.302;2023-12-14T04:31:51;96379.78;;;3.09;100.00
72210;BME280;60113;48.762;12.302;2023-12-14T04:34:18;96384.13;;;3.09;100.00
72210;BME280;60113;48.762;12.302;2023-12-14T04:36:46;96395.38;;;3.09;100.00
72210;BME280;60113;48.762;12.302;2023-12-14T04:39:13;96385.00;;;3.09;100.00
72210;BME280;60113;48.762;12.302;2023-12-14T04:41:40;96394.44;;;3.10;100.00
72210;BME280;60113;48.762;12.302;2023-12-14T04:44:05;96393.53;;;3.11;100.00
72210;BME280;60113;48.762;12.302;2023-12-14T04:46:31;96399.53;;;3.12;100.00
72210;BME280;60113;48.762;12.302;2023-12-14T04:48:57;96406.31;;;3.15;100.00
72210;BME280;60113;48.762;12.302;2023-12-14T04:51:22;96407.13;;;3.15;100.00
72210;BME280;60113;48.762;12.302;2023-12-14T04:53:48;96409.56;;;3.18;100.00
72210;BME280;60113;48.762;12.302;2023-12-14T04:56:13;96416.44;;;3.19;100.00
72210;BME280;60113;48.762;12.302;2023-12-14T04:58:39;96412.06;;;3.20;100.00
72210;BME280;60113;48.762;12.302;2023-12-14T05:01:07;96419.75;;;3.21;100.00
72210;BME280;60113;48.762;12.302;2023-12-14T05:03:34;96424.13;;;3.21;100.00
72210;BME280;60113;48.762;12.302;2023-12-14T05:06:00;96430.22;;;3.20;100.00
72210;BME280;60113;48.762;12.302;2023-12-14T05:08:26;96429.50;;;3.18;100.00
72210;BME280;60113;48.762;12.302;2023-12-14T05:10:52;96429.50;;;3.18;100.00
72210;BME280;60113;48.762;12.302;2023-12-14T05:13:17;96428.84;;;3.14;100.00
72210;BME280;60113;48.762;12.302;2023-12-14T05:15:43;96434.22;;;3.11;100.00
72210;BME280;60113;48.762;12.302;2023-12-14T05:18:08;96446.44;;;3.09;100.00
72210;BME280;60113;48.762;12.302;2023-12-14T05:20:34;96442.28;;;3.06;100.00
72210;BME280;60113;48.762;12.302;2023-12-14T05:23:00;96449.31;;;3.04;100.00
72210;BME280;60113;48.762;12.302;2023-12-14T05:25:25;96451.28;;;3.00;100.00
72210;BME280;60113;48.762;12.302;2023-12-14T05:27:51;96448.84;;;2.97;100.00
72210;BME280;60113;48.762;12.302;2023-12-14T05:30:16;96453.47;;;2.92;100.00
72210;BME280;60113;48.762;12.302;2023-12-14T05:32:43;96458.75;;;2.91;100.00
72210;BME280;60113;48.762;12.302;2023-12-14T05:35:09;96467.56;;;2.88;100.00
72210;BME280;60113;48.762;12.302;2023-12-14T05:37:35;96466.78;;;2.86;100.00
72210;BME280;60113;48.762;12.302;2023-12-14T05:40:01;96466.03;;;2.84;100.00
72210;BME280;60113;48.762;12.302;2023-12-14T05:42:26;96474.75;;;2.83;100.00
72210;BME280;60113;48.762;12.302;2023-12-14T05:44:51;96478.19;;;2.83;100.00
72210;BME280;60113;48.762;12.302;2023-12-14T05:47:17;96483.56;;;2.80;100.00
72210;BME280;60113;48.762;12.302;2023-12-14T05:49:43;96494.09;;;2.77;100.00
72210;BME280;60113;48.762;12.302;2023-12-14T05:52:10;96496.88;;;2.74;100.00
72210;BME280;60113;48.762;12.302;2023-12-14T05:54:36;96509.00;;;2.73;100.00
72210;BME280;60113;48.762;12.302;2023-12-14T05:57:02;96513.34;;;2.73;100.00
72210;BME280;60113;48.762;12.302;2023-12-14T05:59:28;96519.38;;;2.73;100.00
72210;BME280;60113;48.762;12.302;2023-12-14T06:02:00;96531.34;;;2.76;100.00
72210;BME280;60113;48.762;12.302;2023-12-14T06:04:26;96532.09;;;2.78;100.00
72210;BME280;60113;48.762;12.302;2023-12-14T06:06:53;96540.56;;;2.82;100.00
72210;BME280;60113;48.762;12.302;2023-12-14T06:09:19;96530.09;;;2.83;100.00
72210;BME280;60113;48.762;12.302;2023-12-14T06:11:48;96540.22;;;2.88;100.00
72210;BME280;60113;48.762;12.302;2023-12-14T06:14:14;96553.09;;;2.90;100.00
72210;BME280;60113;48.762;12.302;2023-12-14T06:16:40;96552.00;;;2.94;100.00
72210;BME280;60113;48.762;12.302;2023-12-14T06:19:06;96561.34;;;2.96;100.00
72210;BME280;60113;48.762;12.302;2023-12-14T06:21:31;96562.97;;;2.99;100.00
72210;BME280;60113;48.762;12.302;2023-12-14T06:23:57;96567.13;;;3.02;100.00
72210;BME280;60113;48.762;12.302;2023-12-14T06:26:24;96571.22;;;3.06;100.00
72210;BME280;60113;48.762;12.302;2023-12-14T06:28:49;96574.41;;;3.11;100.00
72210;BME280;60113;48.762;12.302;2023-12-14T06:31:17;96584.63;;;3.14;100.00
72210;BME280;60113;48.762;12.302;2023-12-14T06:33:43;96577.50;;;3.18;100.00
72210;BME280;60113;48.762;12.302;2023-12-14T06:36:09;96584.28;;;3.20;100.00
72210;BME280;60113;48.762;12.302;2023-12-14T06:38:38;96585.13;;;3.21;100.00
72210;BME280;60113;48.762;12.302;2023-12-14T06:41:04;96585.13;;;3.21;100.00
72210;BME280;60113;48.762;12.302;2023-12-14T06:43:29;96585.03;;;3.22;100.00
72210;BME280;60113;48.762;12.302;2023-12-14T06:45:55;96592.72;;;3.24;100.00
72210;BME280;60113;48.762;12.302;2023-12-14T06:48:21;96592.66;;;3.25;100.00
72210;BME280;60113;48.762;12.302;2023-12-14T06:50:46;96597.75;;;3.27;100.00
72210;BME280;60113;48.762;12.302;2023-12-14T06:53:12;96602.84;;;3.29;100.00
72210;BME280;60113;48.762;12.302;2023-12-14T06:55:39;96604.53;;;3.30;100.00
72210;BME280;60113;48.762;12.302;2023-12-14T06:58:06;96611.47;;;3.29;100.00
72210;BME280;60113;48.762;12.302;2023-12-14T07:00:36;96619.16;;;3.31;100.00
72210;BME280;60113;48.762;12.302;2023-12-14T07:03:02;96619.94;;;3.33;100.00
72210;BME280;60113;48.762;12.302;2023-12-14T07:05:28;96625.03;;;3.34;100.00
72210;BME280;60113;48.762;12.302;2023-12-14T07:07:54;96629.28;;;3.35;100.00
72210;BME280;60113;48.762;12.302;2023-12-14T07:10:19;96634.41;;;3.37;100.00
72210;BME280;60113;48.762;12.302;2023-12-14T07:12:45;96637.00;;;3.37;100.00
72210;BME280;60113;48.762;12.302;2023-12-14T07:15:12;96645.63;;;3.37;100.00
72210;BME280;60113;48.762;12.302;2023-12-14T07:17:37;96639.50;;;3.38;100.00
72210;BME280;60113;48.762;12.302;2023-12-14T07:20:03;96642.97;;;3.39;100.00
72210;BME280;60113;48.762;12.302;2023-12-14T07:22:29;96655.84;;;3.41;100.00
72210;BME280;60113;48.762;12.302;2023-12-14T07:24:55;96657.44;;;3.43;100.00
72210;BME280;60113;48.762;12.302;2023-12-14T07:27:20;96665.97;;;3.45;100.00
72210;BME280;60113;48.762;12.302;2023-12-14T07:29:45;96665.97;;;3.45;100.00
72210;BME280;60113;48.762;12.302;2023-12-14T07:32:12;96673.78;;;3.45;100.00
72210;BME280;60113;48.762;12.302;2023-12-14T07:34:37;96684.00;;;3.48;100.00
72210;BME280;60113;48.762;12.302;2023-12-14T07:37:03;96686.50;;;3.50;100.00
72210;BME280;60113;48.762;12.302;2023-12-14T07:39:28;96695.13;;;3.50;100.00
72210;BME280;60113;48.762;12.302;2023-12-14T07:41:54;96694.94;;;3.54;100.00
72210;BME280;60113;48.762;12.302;2023-12-14T07:44:19;96692.44;;;3.52;100.00
72210;BME280;60113;48.762;12.302;2023-12-14T07:46:46;96705.34;;;3.54;100.00
72210;BME280;60113;48.762;12.302;2023-12-14T07:49:11;96709.63;;;3.55;100.00
72210;BME280;60113;48.762;12.302;2023-12-14T07:51:37;96708.69;;;3.56;100.00
72210;BME280;60113;48.762;12.302;2023-12-14T07:54:02;96708.59;;;3.57;100.00
72210;BME280;60113;48.762;12.302;2023-12-14T07:56:29;96716.31;;;3.59;100.00
72210;BME280;60113;48.762;12.302;2023-12-14T07:58:54;96711.97;;;3.59;100.00
72210;BME280;60113;48.762;12.302;2023-12-14T08:01:20;96718.91;;;3.59;100.00
72210;BME280;60113;48.762;12.302;2023-12-14T08:03:46;96727.56;;;3.59;100.00
72210;BME280;60113;48.762;12.302;2023-12-14T08:06:11;96728.56;;;3.57;100.00
72210;BME280;60113;48.762;12.302;2023-12-14T08:08:38;96733.75;;;3.57;100.00
72210;BME280;60113;48.762;12.302;2023-12-14T08:11:05;96740.81;;;3.55;100.00
72210;BME280;60113;48.762;12.302;2023-12-14T08:13:31;96742.66;;;3.53;100.00
72210;BME280;60113;48.762;12.302;2023-12-14T08:15:57;96742.72;;;3.51;100.00
72210;BME280;60113;48.762;12.302;2023-12-14T08:18:22;96751.53;;;3.48;100.00
72210;BME280;60113;48.762;12.302;2023-12-14T08:20:48;96753.38;;;3.46;100.00
72210;BME280;60113;48.762;12.302;2023-12-14T08:23:14;96751.72;;;3.45;100.00
72210;BME280;60113;48.762;12.302;2023-12-14T08:25:39;96760.22;;;3.47;100.00
72210;BME280;60113;48.762;12.302;2023-12-14T08:28:04;96763.59;;;3.49;100.00
72210;BME280;60113;48.762;12.302;2023-12-14T08:30:30;96764.19;;;3.55;100.00
72210;BME280;60113;48.762;12.302;2023-12-14T08:32:55;96773.41;;;3.60;100.00
72210;BME280;60113;48.762;12.302;2023-12-14T08:35:21;96774.63;;;3.69;100.00
72210;BME280;60113;48.762;12.302;2023-12-14T08:37:47;96777.75;;;3.76;100.00
72210;BME280;60113;48.762;12.302;2023-12-14T08:40:12;96782.50;;;3.84;100.00
72210;BME280;60113;48.762;12.302;2023-12-14T08:42:38;96792.31;;;3.95;100.00
72210;BME280;60113;48.762;12.302;2023-12-14T08:45:04;96791.78;;;4.04;100.00
72210;BME280;60113;48.762;12.302;2023-12-14T08:47:30;96797.28;;;4.14;100.00
72210;BME280;60113;48.762;12.302;2023-12-14T08:49:55;96796.19;;;4.18;100.00
72210;BME280;60113;48.762;12.302;2023-12-14T08:52:21;96801.13;;;4.23;100.00
72210;BME280;60113;48.762;12.302;2023-12-14T08:54:46;96808.75;;;4.26;100.00
72210;BME280;60113;48.762;12.302;2023-12-14T08:57:12;96799.94;;;4.29;100.00
72210;BME280;60113;48.762;12.302;2023-12-14T08:59:37;96807.66;;;4.30;100.00
72210;BME280;60113;48.762;12.302;2023-12-14T09:02:04;96808.50;;;4.31;100.00
72210;BME280;60113;48.762;12.302;2023-12-14T09:04:29;96816.22;;;4.32;100.00
72210;BME280;60113;48.762;12.302;2023-12-14T09:06:55;96819.63;;;4.33;100.00
72210;BME280;60113;48.762;12.302;2023-12-14T09:09:21;96820.56;;;4.32;100.00
72210;BME280;60113;48.762;12.302;2023-12-14T09:11:46;96824.81;;;4.33;100.00
72210;BME280;60113;48.762;12.302;2023-12-14T09:14:13;96836.94;;;4.34;100.00
72210;BME280;60113;48.762;12.302;2023-12-14T09:16:38;96845.38;;;4.37;100.00
72210;BME280;60113;48.762;12.302;2023-12-14T09:19:04;96853.84;;;4.41;100.00
72210;BME280;60113;48.762;12.302;2023-12-14T09:21:29;96857.94;;;4.45;100.00
72210;BME280;60113;48.762;12.302;2023-12-14T09:23:56;96852.47;;;4.50;100.00
72210;BME280;60113;48.762;12.302;2023-12-14T09:26:21;96844.75;;;4.48;100.00
72210;BME280;60113;48.762;12.302;2023-12-14T09:28:47;96855.16;;;4.48;100.00
72210;BME280;60113;48.762;12.302;2023-12-14T09:31:12;96856.59;;;4.54;100.00
72210;BME280;60113;48.762;12.302;2023-12-14T09:33:38;96861.25;;;4.63;100.00
72210;BME280;60113;48.762;12.302;2023-12-14T09:36:04;96864.50;;;4.67;100.00
72210;BME280;60113;48.762;12.302;2023-12-14T09:38:30;96868.69;;;4.70;100.00
72210;BME280;60113;48.762;12.302;2023-12-14T09:40:55;96874.19;;;4.80;100.00
72210;BME280;60113;48.762;12.302;2023-12-14T09:43:22;96874.38;;;4.77;100.00
72210;BME280;60113;48.762;12.302;2023-12-14T09:45:50;96873.00;;;4.71;100.00
72210;BME280;60113;48.762;12.302;2023-12-14T09:48:16;96876.81;;;4.80;100.00
72210;BME280;60113;48.762;12.302;2023-12-14T09:50:41;96874.34;;;4.93;100.00
72210;BME280;60113;48.762;12.302;2023-12-14T09:53:12;96880.03;;;5.14;100.00
72210;BME280;60113;48.762;12.302;2023-12-14T09:55:38;96871.47;;;5.27;100.00
72210;BME280;60113;48.762;12.302;2023-12-14T09:58:03;96878.25;;;5.44;100.00
72210;BME280;60113;48.762;12.302;2023-12-14T10:00:34;96881.31;;;5.50;100.00
72210;BME280;60113;48.762;12.302;2023-12-14T10:03:25;96877.56;;;5.69;100.00
72210;BME280;60113;48.762;12.302;2023-12-14T10:05:54;96886.47;;;5.94;100.00
72210;BME280;60113;48.762;12.302;2023-12-14T10:08:21;96894.22;;;6.23;100.00
72210;BME280;60113;48.762;12.302;2023-12-14T10:10:48;96897.84;;;6.35;100.00
72210;BME280;60113;48.762;12.302;2023-12-14T10:13:14;96899.41;;;6.38;100.00
72210;BME280;60113;48.762;12.302;2023-12-14T10:15:44;96900.59;;;6.19;100.00
72210;BME280;60113;48.762;12.302;2023-12-14T10:18:10;96895.97;;;5.95;100.00
72210;BME280;60113;48.762;12.302;2023-12-14T10:20:36;96900.66;;;5.75;100.00
72210;BME280;60113;48.762;12.302;2023-12-14T10:23:04;96904.75;;;5.65;100.00
72210;BME280;60113;48.762;12.302;2023-12-14T10:25:31;96902.69;;;5.85;100.00
72210;BME280;60113;48.762;12.302;2023-12-14T10:27:57;96907.66;;;6.17;100.00
72210;BME280;60113;48.762;12.302;2023-12-14T10:30:22;96911.13;;;6.45;100.00
72210;BME280;60113;48.762;12.302;2023-12-14T10:32:48;96909.63;;;6.69;100.00
72210;BME280;60113;48.762;12.302;2023-12-14T10:35:14;96905.84;;;6.60;100.00
72210;BME280;60113;48.762;12.302;2023-12-14T10:37:42;96913.31;;;6.38;100.00
72210;BME280;60113;48.762;12.302;2023-12-14T10:40:09;96917.09;;;6.20;100.00
72210;BME280;60113;48.762;12.302;2023-12-14T10:42:38;96909.84;;;6.10;100.00
72210;BME280;60113;48.762;12.302;2023-12-14T10:45:05;96916.25;;;6.05;100.00
72210;BME280;60113;48.762;12.302;2023-12-14T10:47:32;96925.59;;;5.94;100.00
72210;BME280;60113;48.762;12.302;2023-12-14T10:49:59;96924.41;;;5.85;100.00
72210;BME280;60113;48.762;12.302;2023-12-14T10:52:29;96926.63;;;5.77;100.00
72210;BME280;60113;48.762;12.302;2023-12-14T10:54:59;96922.63;;;5.71;100.00
72210;BME280;60113;48.762;12.302;2023-12-14T10:57:26;96928.13;;;5.67;100.00
72210;BME280;60113;48.762;12.302;2023-12-14T10:59:59;96926.66;;;5.62;100.00
72210;BME280;60113;48.762;12.302;2023-12-14T11:02:25;96937.72;;;5.66;100.00
72210;BME280;60113;48.762;12.302;2023-12-14T11:04:59;96936.16;;;5.63;100.00
72210;BME280;60113;48.762;12.302;2023-12-14T11:07:44;96944.81;;;5.64;100.00
72210;BME280;60113;48.762;12.302;2023-12-14T11:10:10;96953.00;;;5.58;100.00
72210;BME280;60113;48.762;12.302;2023-12-14T11:12:37;96956.53;;;5.57;100.00
72210;BME280;60113;48.762;12.302;2023-12-14T11:15:07;96959.69;;;5.62;100.00
72210;BME280;60113;48.762;12.302;2023-12-14T11:17:34;96960.53;;;5.62;100.00
72210;BME280;60113;48.762;12.302;2023-12-14T11:20:24;96958.66;;;5.65;100.00
72210;BME280;60113;48.762;12.302;2023-12-14T11:22:49;96961.09;;;5.68;100.00
72210;BME280;60113;48.762;12.302;2023-12-14T11:25:17;96962.78;;;5.69;100.00
72210;BME280;60113;48.762;12.302;2023-12-14T11:27:43;96964.81;;;5.63;100.00
72210;BME280;60113;48.762;12.302;2023-12-14T11:30:11;96963.59;;;5.69;100.00
72210;BME280;60113;48.762;12.302;2023-12-14T11:32:37;96964.72;;;5.65;100.00
72210;BME280;60113;48.762;12.302;2023-12-14T11:35:04;96961.75;;;5.71;100.00
72210;BME280;60113;48.762;12.302;2023-12-14T11:37:33;96956.72;;;5.68;100.00
72210;BME280;60113;48.762;12.302;2023-12-14T11:40:02;96967.59;;;5.60;100.00
72210;BME280;60113;48.762;12.302;2023-12-14T11:42:30;96977.56;;;5.68;100.00
72210;BME280;60113;48.762;12.302;2023-12-14T11:44:57;96975.91;;;5.67;100.00
72210;BME280;60113;48.762;12.302;2023-12-14T11:47:22;96974.31;;;5.65;100.00
72210;BME280;60113;48.762;12.302;2023-12-14T11:49:47;96975.34;;;5.62;100.00
72210;BME280;60113;48.762;12.302;2023-12-14T11:52:14;96981.41;;;5.62;100.00
72210;BME280;60113;48.762;12.302;2023-12-14T11:54:39;96982.97;;;5.65;100.00
72210;BME280;60113;48.762;12.302;2023-12-14T11:57:05;96974.41;;;5.63;100.00
72210;BME280;60113;48.762;12.302;2023-12-14T11:59:35;96986.53;;;5.64;100.00
72210;BME280;60113;48.762;12.302;2023-12-14T12:02:02;96984.19;;;5.59;100.00
72210;BME280;60113;48.762;12.302;2023-12-14T12:04:28;96985.41;;;5.68;100.00
72210;BME280;60113;48.762;12.302;2023-12-14T12:07:02;96986.69;;;5.75;100.00
72210;BME280;60113;48.762;12.302;2023-12-14T12:09:35;96990.91;;;5.78;100.00
72210;BME280;60113;48.762;12.302;2023-12-14T12:12:05;96997.97;;;5.76;100.00
72210;BME280;60113;48.762;12.302;2023-12-14T12:14:31;96994.13;;;5.82;100.00
72210;BME280;60113;48.762;12.302;2023-12-14T12:16:57;96992.94;;;5.87;100.00
72210;BME280;60113;48.762;12.302;2023-12-14T12:19:22;96984.84;;;5.92;100.00
72210;BME280;60113;48.762;12.302;2023-12-14T12:21:48;96987.25;;;5.95;100.00
72210;BME280;60113;48.762;12.302;2023-12-14T12:24:13;96988.84;;;5.98;100.00
72210;BME280;60113;48.762;12.302;2023-12-14T12:26:39;96995.63;;;6.00;100.00
72210;BME280;60113;48.762;12.302;2023-12-14T12:29:04;96992.28;;;5.98;100.00
72210;BME280;60113;48.762;12.302;2023-12-14T12:31:31;96996.22;;;6.06;100.00
72210;BME280;60113;48.762;12.302;2023-12-14T12:33:58;96998.81;;;6.06;100.00
72210;BME280;60113;48.762;12.302;2023-12-14T12:36:23;96996.31;;;6.04;100.00
72210;BME280;60113;48.762;12.302;2023-12-14T12:38:48;97002.16;;;6.08;100.00
72210;BME280;60113;48.762;12.302;2023-12-14T12:41:14;97012.59;;;6.08;100.00
72210;BME280;60113;48.762;12.302;2023-12-14T12:43:40;97010.06;;;6.06;100.00
72210;BME280;60113;48.762;12.302;2023-12-14T12:46:06;97024.13;;;6.04;100.00